Kezdőlap
METAR-TAF:

METAR-TAF

Repülőterek :

Tennant Creek, Ausztrália

földrajzi szélesség: 19-38-04S, földrajzi hosszúság: 134-11-00E, magasság: 377 m

Jelenlegi meteorológiai megfigyelések

A jelentés 25 perccel ezelõtt készült, 00:00 UTC
Kelet-délkeleti szél 19 kt
Hőmérséklet 13°C
Páratartalom 41%
Légköri nyomás 1024 hPa
Látótávolság 10 km, vagy több

METAR: YTNK 130000Z AUTO 12019KT 9999 // NCD 13/00 Q1024

Idő: 09:55 (00:25 UTC)

Előrejelzés

A jelentés 12 órával és 23 perccel ezelõtt készült, 12:02 UTC
Az előrejelzés 12-én 14 óra UTC és 13-én 02 óra UTC között érvényes
Délkeleti szél 12 kt
Látótávolság 10 km, vagy több
felhőtlen 1500 m magasságban, és nincs gomolyfelhõ
12-én 2300 órától UTC szerint
Kelet-délkeleti szél 18 kt
Látótávolság 10 km, vagy több
felhőtlen 1500 m magasságban, és nincs gomolyfelhõ

TAF: YTNK 121202Z 1214/1302 14012KT CAVOK FM122300 12018KT CAVOK

Meteorológiai megfigyelések és előrejelzések több, mint 4000 repülőtéren (METAR és TAF jelentéseket).

A térképen piros és sárga pontok jelzik az elérhető meteorológiai állomásokat.

Mozgassa az egeret a pont fölött, hogy megjelenjen az állomás neve.

Azután kattintson az időjárási megfigyelések és előrejelzések megtekintéséhez.

A térkép megváltoztatása: kattintson a fekete keresztel jelölt zöld gombra ráközelítéshez, a vonallal jelölt zöld gombra távolításhoz, vagy a zöld nyilakra a szomszédos térképek eléréséhez.


METAR-TAF: